createdAt,value
2019-06-20T00:02:17.714Z,99814.59
2019-06-20T00:04:46.987Z,99816.73
2019-06-20T00:07:16.202Z,99824.69
2019-06-20T00:09:46.651Z,99831.30
2019-06-20T00:12:15.674Z,99830.31
2019-06-20T00:14:44.863Z,99828.92
2019-06-20T00:17:14.088Z,99829.74
2019-06-20T00:19:44.581Z,99828.20
2019-06-20T00:22:13.910Z,99832.92
2019-06-20T00:24:44.047Z,99832.64
2019-06-20T00:27:13.376Z,99831.08
2019-06-20T00:29:42.495Z,99833.98
2019-06-20T00:32:11.849Z,99831.36
2019-06-20T00:34:41.091Z,99833.03
2019-06-20T00:37:09.991Z,99832.52
2019-06-20T00:39:39.103Z,99833.57
2019-06-20T00:42:08.737Z,99834.14
2019-06-20T00:44:38.479Z,99830.42
2019-06-20T00:47:08.232Z,99837.86
2019-06-20T00:49:37.746Z,99840.39
2019-06-20T00:52:06.836Z,99838.72
2019-06-20T00:54:36.188Z,99839.38
2019-06-20T00:57:05.286Z,99844.72
2019-06-20T00:59:34.672Z,99843.01
2019-06-20T01:02:03.842Z,99837.67
2019-06-20T01:04:32.980Z,99848.34
2019-06-20T01:07:02.213Z,99850.00
2019-06-20T01:09:31.683Z,99848.48
2019-06-20T01:12:00.856Z,99848.48
2019-06-20T01:14:30.304Z,99849.88
2019-06-20T01:16:59.301Z,99849.73
2019-06-20T01:19:28.571Z,99849.83
2019-06-20T01:21:57.872Z,99854.48
2019-06-20T01:24:26.952Z,99846.62
2019-06-20T01:26:56.131Z,99853.30
2019-06-20T01:29:25.242Z,99852.61
2019-06-20T01:31:54.394Z,99848.95
2019-06-20T01:34:23.654Z,99846.02
2019-06-20T01:36:52.865Z,99852.09
2019-06-20T01:39:22.050Z,99855.75
2019-06-20T01:41:50.935Z,99856.20
2019-06-20T01:44:20.160Z,99853.16
2019-06-20T01:46:49.168Z,99859.98
2019-06-20T01:49:18.398Z,99866.25
2019-06-20T01:51:47.314Z,99873.72
2019-06-20T01:54:16.418Z,99873.66
2019-06-20T01:56:45.614Z,99877.00
2019-06-20T01:59:14.778Z,99879.33
2019-06-20T02:01:43.871Z,99881.52
2019-06-20T02:04:12.944Z,99884.73
2019-06-20T02:06:41.902Z,99883.40
2019-06-20T02:09:10.910Z,99880.19
2019-06-20T02:11:39.973Z,99877.52
2019-06-20T02:14:08.936Z,99887.68
2019-06-20T02:16:37.915Z,99882.00
2019-06-20T02:19:07.824Z,99882.99
2019-06-20T02:21:37.834Z,99882.06
2019-06-20T02:24:07.556Z,99884.05
2019-06-20T02:26:36.777Z,99885.87
2019-06-20T02:29:06.000Z,99886.72
2019-06-20T02:31:35.409Z,99893.15
2019-06-20T02:34:04.577Z,99890.92
2019-06-20T02:36:33.693Z,99889.73
2019-06-20T02:39:02.609Z,99892.40
2019-06-20T02:41:33.193Z,99894.02
2019-06-20T02:44:02.311Z,99892.33
2019-06-20T02:46:31.411Z,99890.06
2019-06-20T02:49:00.537Z,99885.13
2019-06-20T02:51:30.073Z,99884.08
2019-06-20T02:53:59.191Z,99886.95
2019-06-20T02:56:28.290Z,99892.30
2019-06-20T02:58:57.235Z,99884.00
2019-06-20T03:01:27.474Z,99887.44
2019-06-20T03:03:56.797Z,99886.51
2019-06-20T03:06:25.752Z,99889.58
2019-06-20T03:08:54.861Z,99886.73
2019-06-20T03:11:23.947Z,99890.14
2019-06-20T03:13:52.892Z,99888.56
2019-06-20T03:16:21.982Z,99895.35
2019-06-20T03:18:50.975Z,99888.77
2019-06-20T03:21:20.054Z,99891.17
2019-06-20T03:23:49.546Z,99889.15
2019-06-20T03:26:18.834Z,99889.88
2019-06-20T03:28:47.955Z,99895.83
2019-06-20T03:31:17.498Z,99890.87
2019-06-20T03:33:46.767Z,99890.57
2019-06-20T03:36:15.941Z,99892.33
2019-06-20T03:38:45.274Z,99897.06
2019-06-20T03:41:14.263Z,99899.45
2019-06-20T03:43:43.292Z,99893.66
2019-06-20T03:46:12.359Z,99900.16
2019-06-20T03:48:41.596Z,99897.85
2019-06-20T03:51:10.706Z,99898.19
2019-06-20T03:53:39.897Z,99898.56
2019-06-20T03:56:08.956Z,99895.59
2019-06-20T03:58:38.270Z,99889.94
2019-06-20T04:01:07.373Z,99892.95
2019-06-20T04:03:36.830Z,99893.00
2019-06-20T04:06:05.856Z,99891.69
2019-06-20T04:08:34.980Z,99892.06
2019-06-20T04:11:05.616Z,99893.84
2019-06-20T04:13:34.674Z,99897.30
2019-06-20T04:16:03.966Z,99899.70
2019-06-20T04:18:33.070Z,99902.63
2019-06-20T04:21:02.300Z,99902.84
2019-06-20T04:23:31.495Z,99898.84
2019-06-20T04:26:00.569Z,99895.41
2019-06-20T04:28:29.683Z,99890.94
2019-06-20T04:30:58.802Z,99885.33
2019-06-20T04:33:28.353Z,99890.89
2019-06-20T04:35:57.389Z,99890.42
2019-06-20T04:38:26.808Z,99896.98
2019-06-20T04:40:55.907Z,99895.33
2019-06-20T04:43:26.064Z,99900.23
2019-06-20T04:46:20.335Z,99894.23
2019-06-20T04:48:49.339Z,99894.59
2019-06-20T04:51:18.472Z,99900.18
2019-06-20T04:53:47.542Z,99895.31
2019-06-20T04:56:16.761Z,99900.00
2019-06-20T04:58:45.848Z,99903.44
2019-06-20T05:01:15.091Z,99902.61
2019-06-20T05:03:44.211Z,99900.95
2019-06-20T05:06:14.089Z,99899.80
2019-06-20T05:08:42.805Z,99900.47
2019-06-20T05:11:11.606Z,99900.14
2019-06-20T05:13:40.489Z,99896.45
2019-06-20T05:16:09.564Z,99903.17
2019-06-20T05:18:40.067Z,99901.34
2019-06-20T05:21:09.209Z,99896.14
2019-06-20T05:23:39.217Z,99895.81
2019-06-20T05:26:08.616Z,99893.45
2019-06-20T05:28:38.785Z,99893.16
2019-06-20T05:31:07.823Z,99893.64
2019-06-20T05:33:37.823Z,99897.34
2019-06-20T05:36:06.722Z,99895.30
2019-06-20T05:38:35.489Z,99886.21
2019-06-20T05:41:07.061Z,99892.27
2019-06-20T05:43:37.415Z,99894.78
2019-06-20T05:46:10.678Z,99895.25
2019-06-20T05:48:37.474Z,99896.45
2019-06-20T05:51:09.674Z,99896.77
2019-06-20T05:53:38.867Z,99896.09
2019-06-20T05:56:08.570Z,99894.70
2019-06-20T05:58:39.357Z,99891.34
2019-06-20T06:01:08.484Z,99896.71
2019-06-20T06:03:37.503Z,99893.33
2019-06-20T06:06:06.418Z,99890.59
2019-06-20T06:08:35.272Z,99892.44
2019-06-20T06:11:04.293Z,99887.37
2019-06-20T06:13:33.088Z,99881.77
2019-06-20T06:16:03.183Z,99885.24
2019-06-20T06:18:32.157Z,99884.41
2019-06-20T06:21:01.355Z,99881.67
2019-06-20T06:23:30.247Z,99884.84
2019-06-20T06:25:59.741Z,99880.63
2019-06-20T06:28:28.995Z,99878.23
2019-06-20T06:30:57.874Z,99883.41
2019-06-20T06:33:27.627Z,99876.77
2019-06-20T06:35:57.040Z,99885.99
2019-06-20T06:38:26.139Z,99882.70
2019-06-20T06:40:55.387Z,99881.69
2019-06-20T06:43:24.689Z,99881.44
2019-06-20T06:45:54.423Z,99876.55
2019-06-20T06:48:23.657Z,99877.30
2019-06-20T06:50:52.874Z,99875.91
2019-06-20T06:53:22.181Z,99879.77
2019-06-20T06:55:51.588Z,99882.11
2019-06-20T06:58:20.861Z,99879.70
2019-06-20T07:00:50.088Z,99883.84
2019-06-20T07:03:19.229Z,99878.27
2019-06-20T07:05:49.615Z,99885.16
2019-06-20T07:08:19.076Z,99876.34
2019-06-20T07:10:48.041Z,99872.80
2019-06-20T07:13:17.266Z,99876.17
2019-06-20T07:15:46.361Z,99875.14
2019-06-20T07:18:15.409Z,99876.45
2019-06-20T07:20:44.810Z,99874.61
2019-06-20T07:23:13.840Z,99877.66
2019-06-20T07:25:43.082Z,99873.61
2019-06-20T07:28:12.321Z,99878.82
2019-06-20T07:30:41.364Z,99878.82
2019-06-20T07:33:10.666Z,99873.70
2019-06-20T07:35:41.891Z,99871.59
2019-06-20T07:38:10.638Z,99862.95
2019-06-20T07:40:39.588Z,99868.39
2019-06-20T07:43:08.700Z,99869.38
2019-06-20T07:45:37.981Z,99857.31
2019-06-20T07:48:06.980Z,99854.48
2019-06-20T07:50:39.360Z,99854.39
2019-06-20T07:53:06.874Z,99857.50
2019-06-20T07:55:35.920Z,99849.59
2019-06-20T07:58:05.421Z,99852.34
2019-06-20T08:00:34.872Z,99855.67
2019-06-20T08:03:04.305Z,99845.14
2019-06-20T08:05:33.466Z,99851.67
2019-06-20T08:08:02.761Z,99854.37
2019-06-20T08:10:32.585Z,99851.17
2019-06-20T08:13:01.667Z,99841.31
2019-06-20T08:15:31.191Z,99842.16
2019-06-20T08:18:00.318Z,99842.34
2019-06-20T08:20:29.422Z,99838.69
2019-06-20T08:22:58.602Z,99835.13
2019-06-20T08:25:27.909Z,99837.08
2019-06-20T08:27:59.101Z,99832.44
2019-06-20T08:30:29.928Z,99827.56
2019-06-20T08:33:03.649Z,99829.23
2019-06-20T08:35:32.254Z,99832.66
2019-06-20T08:38:03.745Z,99827.88
2019-06-20T08:40:36.391Z,99825.84
2019-06-20T08:43:06.661Z,99830.70
2019-06-20T08:45:37.816Z,99833.53
2019-06-20T08:48:07.489Z,99833.16
2019-06-20T08:50:37.079Z,99838.94
2019-06-20T08:53:06.616Z,99842.30
2019-06-20T08:55:36.169Z,99835.48
2019-06-20T08:58:05.788Z,99836.30
2019-06-20T09:00:36.949Z,99832.06
2019-06-20T09:03:07.172Z,99842.86
2019-06-20T09:05:36.386Z,99843.86
2019-06-20T09:08:11.112Z,99841.09
2019-06-20T09:10:39.912Z,99839.09
2019-06-20T09:13:10.919Z,99841.86
2019-06-20T09:15:40.154Z,99838.83
2019-06-20T09:18:10.522Z,99843.97
2019-06-20T09:20:40.622Z,99835.86
2019-06-20T09:23:09.297Z,99842.80
2019-06-20T09:25:39.925Z,99840.09
2019-06-20T09:28:09.805Z,99849.16
2019-06-20T09:30:39.016Z,99837.90
2019-06-20T09:33:08.597Z,99832.38
2019-06-20T09:35:38.212Z,99829.77
2019-06-20T09:38:07.397Z,99830.58
2019-06-20T09:40:36.642Z,99833.69
2019-06-20T09:43:06.680Z,99836.98
2019-06-20T09:45:35.911Z,99842.30
2019-06-20T09:48:05.165Z,99833.28
2019-06-20T09:50:34.446Z,99834.94
2019-06-20T09:53:03.619Z,99832.07
2019-06-20T09:55:32.996Z,99832.59
2019-06-20T09:58:02.478Z,99833.84
2019-06-20T10:00:33.739Z,99832.47
2019-06-20T10:03:03.053Z,99834.02
2019-06-20T10:05:32.396Z,99820.44
2019-06-20T10:08:01.585Z,99827.82
2019-06-20T10:10:31.357Z,99827.38
2019-06-20T10:13:01.416Z,99820.56
2019-06-20T10:15:31.578Z,99828.00
2019-06-20T10:18:00.789Z,99827.63
2019-06-20T10:20:29.964Z,99826.46
2019-06-20T10:22:59.080Z,99830.77
2019-06-20T10:25:28.076Z,99829.42
2019-06-20T10:27:57.884Z,99826.46
2019-06-20T10:30:27.492Z,99828.99
2019-06-20T10:32:57.735Z,99819.84
2019-06-20T10:35:27.320Z,99816.50
2019-06-20T10:37:57.152Z,99808.75
2019-06-20T10:40:26.919Z,99814.93
2019-06-20T10:42:56.961Z,99806.36
2019-06-20T10:45:26.691Z,99804.13
2019-06-20T10:47:56.195Z,99805.02
2019-06-20T10:50:25.646Z,99802.19
2019-06-20T10:52:55.062Z,99798.19
2019-06-20T10:55:24.564Z,99795.13
2019-06-20T10:57:53.782Z,99798.05
2019-06-20T11:00:31.192Z,99800.68
2019-06-20T11:02:55.771Z,99791.01
2019-06-20T11:05:24.936Z,99788.15
2019-06-20T11:07:54.306Z,99795.14
2019-06-20T11:10:24.267Z,99790.73
2019-06-20T11:12:56.010Z,99793.36
2019-06-20T11:15:24.570Z,99788.89
2019-06-20T11:17:56.364Z,99790.17
2019-06-20T11:20:24.431Z,99788.66
2019-06-20T11:22:53.703Z,99781.12
2019-06-20T11:25:22.406Z,99786.63
2019-06-20T11:27:51.309Z,99783.01
2019-06-20T11:30:20.579Z,99774.42
2019-06-20T11:32:49.427Z,99769.98
2019-06-20T11:35:18.722Z,99764.73
2019-06-20T11:37:47.465Z,99765.69
2019-06-20T11:40:16.774Z,99765.13
2019-06-20T11:42:46.973Z,99770.77
2019-06-20T11:45:16.991Z,99759.33
2019-06-20T11:47:47.383Z,99753.44
2019-06-20T11:50:16.607Z,99753.40
2019-06-20T11:52:45.973Z,99763.94
2019-06-20T11:55:16.405Z,99764.38
2019-06-20T11:57:45.232Z,99760.08
2019-06-20T12:00:15.088Z,99766.08
2019-06-20T12:02:44.737Z,99765.03
2019-06-20T12:05:16.241Z,99756.84
2019-06-20T12:07:45.647Z,99750.61
2019-06-20T12:10:15.668Z,99749.32
2019-06-20T12:12:44.794Z,99750.23
2019-06-20T12:15:13.962Z,99752.45
2019-06-20T12:17:45.190Z,99757.17
2019-06-20T12:20:14.034Z,99749.13
2019-06-20T12:22:43.606Z,99745.15
2019-06-20T12:25:14.007Z,99741.73
2019-06-20T12:27:43.267Z,99744.16
2019-06-20T12:30:13.894Z,99745.77
2019-06-20T12:32:42.633Z,99744.75
2019-06-20T12:35:11.970Z,99741.86
2019-06-20T12:37:42.529Z,99739.75
2019-06-20T12:40:11.971Z,99739.94
2019-06-20T12:42:41.825Z,99742.05
2019-06-20T12:45:11.357Z,99735.14
2019-06-20T12:47:41.799Z,99726.63
2019-06-20T12:50:10.760Z,99731.98
2019-06-20T12:52:40.723Z,99727.42
2019-06-20T12:55:10.994Z,99728.05
2019-06-20T12:57:40.369Z,99721.08
2019-06-20T13:00:10.104Z,99716.17
2019-06-20T13:02:40.488Z,99717.67
2019-06-20T13:05:10.506Z,99714.84
2019-06-20T13:07:40.756Z,99719.87
2019-06-20T13:10:10.029Z,99714.48
2019-06-20T13:12:42.255Z,99713.31
2019-06-20T13:15:11.628Z,99714.40
2019-06-20T13:17:41.922Z,99716.42
2019-06-20T13:20:12.467Z,99703.77
2019-06-20T13:22:42.793Z,99705.03
2019-06-20T13:25:13.540Z,99704.25
2019-06-20T13:27:43.427Z,99703.30
2019-06-20T13:30:12.729Z,99697.80
2019-06-20T13:32:43.099Z,99692.69
2019-06-20T13:35:12.487Z,99689.52
2019-06-20T13:37:42.092Z,99689.52
2019-06-20T13:40:12.752Z,99640.15
2019-06-20T13:42:43.699Z,99689.77
2019-06-20T13:45:24.892Z,99687.89
2019-06-20T13:47:53.803Z,99684.04
2019-06-20T13:50:24.358Z,99684.04
2019-06-20T13:52:53.303Z,99670.05
2019-06-20T13:55:22.540Z,99670.05
2019-06-20T13:57:52.648Z,99669.34
2019-06-20T14:00:21.968Z,99680.16
2019-06-20T14:02:51.701Z,99673.39
2019-06-20T14:05:20.856Z,99667.38
2019-06-20T14:07:53.473Z,99673.98
2019-06-20T14:10:21.820Z,99668.09
2019-06-20T14:12:50.591Z,99670.36
2019-06-20T14:15:19.886Z,99668.45
2019-06-20T14:17:49.773Z,99665.68
2019-06-20T14:20:19.224Z,99666.00
2019-06-20T14:22:49.524Z,99665.09
2019-06-20T14:25:19.549Z,99664.81
2019-06-20T14:27:51.348Z,99657.27
2019-06-20T14:30:20.802Z,99645.28
2019-06-20T14:32:49.696Z,99645.28
2019-06-20T14:35:19.595Z,99669.14
2019-06-20T14:37:49.560Z,99659.39
2019-06-20T14:40:19.545Z,99650.19
2019-06-20T14:42:48.216Z,99650.19
2019-06-20T14:45:18.517Z,99651.09
2019-06-20T14:47:47.743Z,99643.36
2019-06-20T14:50:16.870Z,99645.66
2019-06-20T14:52:48.043Z,99648.44
2019-06-20T14:55:16.652Z,99638.32
2019-06-20T14:57:46.996Z,99641.09
2019-06-20T15:00:16.353Z,99644.81
2019-06-20T15:02:47.231Z,99645.63
2019-06-20T15:05:17.768Z,99639.78
2019-06-20T15:07:48.924Z,99650.48
2019-06-20T15:10:18.077Z,99642.52
2019-06-20T15:12:48.389Z,99643.53
2019-06-20T15:15:17.990Z,99646.77
2019-06-20T15:17:49.728Z,99646.77
2019-06-20T15:20:18.181Z,99637.99
2019-06-20T15:22:48.803Z,99641.22
2019-06-20T15:25:18.975Z,99643.78
2019-06-20T15:27:50.267Z,99642.44
2019-06-20T15:30:20.204Z,99646.93
2019-06-20T15:33:01.194Z,99643.03
2019-06-20T15:35:19.553Z,99641.08
2019-06-20T15:37:50.188Z,99644.66
2019-06-20T15:40:19.773Z,99643.34
2019-06-20T15:42:49.586Z,99646.48
2019-06-20T15:45:19.579Z,99648.20
2019-06-20T15:47:48.462Z,99637.27
2019-06-20T15:50:17.381Z,99641.84
2019-06-20T15:52:46.309Z,99638.13
2019-06-20T15:55:19.125Z,99638.48
2019-06-20T15:57:47.731Z,99632.59
2019-06-20T16:00:17.033Z,99630.30
2019-06-20T16:02:45.982Z,99629.23
2019-06-20T16:05:15.104Z,99639.19
2019-06-20T16:07:44.080Z,99638.28
2019-06-20T16:10:15.295Z,99641.97
2019-06-20T16:12:44.760Z,99644.30
2019-06-20T16:15:20.079Z,99647.45
2019-06-20T16:17:48.866Z,99638.89
2019-06-20T16:20:18.052Z,99642.59
2019-06-20T16:22:48.917Z,99643.44
2019-06-20T16:25:18.137Z,99641.61
2019-06-20T16:27:47.305Z,99645.07
2019-06-20T16:30:16.507Z,99647.81
2019-06-20T16:32:45.653Z,99643.87
2019-06-20T16:35:14.909Z,99641.81
2019-06-20T16:37:43.884Z,99640.45
2019-06-20T16:40:13.316Z,99640.47
2019-06-20T16:42:42.094Z,99644.42
2019-06-20T16:45:11.368Z,99643.98
2019-06-20T16:47:40.201Z,99638.19
2019-06-20T16:50:09.254Z,99640.21
2019-06-20T16:52:38.041Z,99641.67
2019-06-20T16:55:07.447Z,99640.99
2019-06-20T16:57:36.496Z,99637.71
2019-06-20T17:00:07.032Z,99634.31
2019-06-20T17:02:36.228Z,99637.33
2019-06-20T17:05:05.806Z,99645.06
2019-06-20T17:07:35.599Z,99636.50
2019-06-20T17:10:07.816Z,99642.31
2019-06-20T17:12:38.270Z,99642.37
2019-06-20T17:15:07.808Z,99645.06
2019-06-20T17:17:36.935Z,99639.73
2019-06-20T17:20:06.413Z,99644.06
2019-06-20T17:22:35.559Z,99643.52
2019-06-20T17:25:04.614Z,99642.98
2019-06-20T17:27:33.833Z,99644.38
2019-06-20T17:30:03.037Z,99642.45
2019-06-20T17:32:32.179Z,99646.17
2019-06-20T17:35:01.488Z,99655.42
2019-06-20T17:37:30.898Z,99652.38
2019-06-20T17:39:59.746Z,99648.48
2019-06-20T17:42:28.988Z,99652.16
2019-06-20T17:44:58.214Z,99655.87
2019-06-20T17:47:27.724Z,99663.91
2019-06-20T17:49:56.793Z,99669.45
2019-06-20T17:52:25.798Z,99671.69
2019-06-20T17:54:54.789Z,99674.91
2019-06-20T17:57:23.689Z,99682.23
2019-06-20T17:59:53.900Z,99677.52
2019-06-20T18:02:23.425Z,99683.30
2019-06-20T18:04:52.880Z,99692.23
2019-06-20T18:07:24.269Z,99688.45
2019-06-20T18:09:53.896Z,99693.63
2019-06-20T18:12:23.255Z,99697.15
2019-06-20T18:14:52.332Z,99698.44
2019-06-20T18:17:21.264Z,99696.58
2019-06-20T18:19:50.654Z,99702.86
2019-06-20T18:22:19.813Z,99704.13
2019-06-20T18:24:48.939Z,99698.85
2019-06-20T18:27:17.929Z,99705.21
2019-06-20T18:29:47.117Z,99701.42
2019-06-20T18:32:16.038Z,99706.88
2019-06-20T18:35:00.552Z,99704.73
2019-06-20T18:37:30.593Z,99712.55
2019-06-20T18:39:46.576Z,99712.05
2019-06-20T18:42:15.566Z,99703.22
2019-06-20T18:44:44.546Z,99709.24
2019-06-20T18:47:13.561Z,99711.59
2019-06-20T18:49:42.710Z,99709.61
2019-06-20T18:52:11.720Z,99714.33
2019-06-20T18:54:40.844Z,99714.11
2019-06-20T18:57:10.178Z,99718.86
2019-06-20T18:59:39.454Z,99724.16
2019-06-20T19:02:09.108Z,99728.39
2019-06-20T19:04:47.768Z,99725.21
2019-06-20T19:07:09.310Z,99719.37
2019-06-20T19:09:38.237Z,99722.81
2019-06-20T19:12:07.273Z,99720.84
2019-06-20T19:14:55.411Z,99728.28
2019-06-20T19:17:24.492Z,99729.48
2019-06-20T19:19:53.504Z,99726.97
2019-06-20T19:22:22.625Z,99731.02
2019-06-20T19:24:51.735Z,99729.38
2019-06-20T19:27:20.744Z,99728.03
2019-06-20T19:29:50.133Z,99728.61
2019-06-20T19:32:19.377Z,99732.55
2019-06-20T19:35:01.425Z,99738.67
2019-06-20T19:37:19.427Z,99735.69
2019-06-20T19:39:48.520Z,99735.58
2019-06-20T19:42:20.430Z,99734.08
2019-06-20T19:44:48.146Z,99732.73
2019-06-20T19:47:17.518Z,99741.52
2019-06-20T19:49:47.013Z,99732.94
2019-06-20T19:52:16.072Z,99736.66
2019-06-20T19:54:47.039Z,99740.17
2019-06-20T19:57:16.221Z,99739.96
2019-06-20T19:59:46.290Z,99742.98
2019-06-20T20:02:15.565Z,99744.47
2019-06-20T20:04:44.901Z,99744.11
2019-06-20T20:07:14.084Z,99743.47
2019-06-20T20:09:43.279Z,99747.83
2019-06-20T20:12:12.593Z,99751.25
2019-06-20T20:14:42.740Z,99752.45
2019-06-20T20:17:12.263Z,99755.81
2019-06-20T20:19:41.422Z,99755.98
2019-06-20T20:22:11.182Z,99755.67
2019-06-20T20:24:40.483Z,99760.41
2019-06-20T20:27:09.436Z,99759.58
2019-06-20T20:29:38.712Z,99758.41
2019-06-20T20:32:10.061Z,99756.45
2019-06-20T20:34:39.328Z,99763.02
2019-06-20T20:37:09.568Z,99759.51
2019-06-20T20:39:39.033Z,99765.23
2019-06-20T20:42:08.124Z,99764.91
2019-06-20T20:44:37.669Z,99767.77
2019-06-20T20:47:06.628Z,99767.13
2019-06-20T20:49:35.727Z,99770.33
2019-06-20T20:52:05.130Z,99775.06
2019-06-20T20:54:34.257Z,99777.42
2019-06-20T20:57:03.556Z,99782.82
2019-06-20T20:59:32.642Z,99781.32
2019-06-20T21:02:01.665Z,99789.20
2019-06-20T21:04:31.478Z,99788.35
2019-06-20T21:07:00.676Z,99794.10
2019-06-20T21:09:29.793Z,99797.78
2019-06-20T21:11:58.526Z,99804.02
2019-06-20T21:14:27.582Z,99804.55
2019-06-20T21:16:56.389Z,99805.53
2019-06-20T21:19:25.502Z,99807.90
2019-06-20T21:21:54.319Z,99814.14
2019-06-20T21:24:23.329Z,99808.09
2019-06-20T21:26:51.811Z,99812.66
2019-06-20T21:29:20.544Z,99803.44
2019-06-20T21:31:49.462Z,99806.47
2019-06-20T21:34:19.490Z,99805.64
2019-06-20T21:36:48.594Z,99806.66
2019-06-20T21:39:17.539Z,99808.18
2019-06-20T21:41:46.049Z,99803.67
2019-06-20T21:44:15.076Z,99804.50
2019-06-20T21:46:44.492Z,99807.52
2019-06-20T21:49:13.099Z,99806.02
2019-06-20T21:51:44.597Z,99813.91
2019-06-20T21:54:12.400Z,99810.37
2019-06-20T21:56:41.552Z,99804.35
2019-06-20T21:59:10.215Z,99803.01
2019-06-20T22:01:39.862Z,99803.34
2019-06-20T22:04:09.038Z,99803.50
2019-06-20T22:06:38.043Z,99801.34
2019-06-20T22:09:09.332Z,99803.50
2019-06-20T22:11:38.638Z,99807.52
2019-06-20T22:14:07.714Z,99807.36
2019-06-20T22:16:37.302Z,99807.19
2019-06-20T22:19:06.535Z,99809.53
2019-06-20T22:21:35.308Z,99807.01
2019-06-20T22:24:04.062Z,99806.12
2019-06-20T22:26:32.810Z,99806.30
2019-06-20T22:29:01.479Z,99806.11
2019-06-20T22:31:30.538Z,99810.13
2019-06-20T22:33:59.309Z,99802.91
2019-06-20T22:36:39.793Z,99806.44
2019-06-20T22:38:59.600Z,99811.09
2019-06-20T22:41:28.477Z,99812.11
2019-06-20T22:43:57.632Z,99812.59
2019-06-20T22:46:27.011Z,99815.09
2019-06-20T22:48:56.177Z,99818.79
2019-06-20T22:51:25.203Z,99820.30
2019-06-20T22:53:54.083Z,99818.47
2019-06-20T22:56:22.808Z,99812.09
2019-06-20T22:58:52.076Z,99817.13
2019-06-20T23:01:21.060Z,99813.76
2019-06-20T23:03:50.193Z,99808.75
2019-06-20T23:06:19.081Z,99812.22
2019-06-20T23:08:49.282Z,99812.36
2019-06-20T23:11:18.446Z,99814.69
2019-06-20T23:13:47.444Z,99814.02
2019-06-20T23:16:16.548Z,99807.45
2019-06-20T23:18:45.888Z,99815.27
2019-06-20T23:21:14.948Z,99814.20
2019-06-20T23:23:43.840Z,99815.83
2019-06-20T23:26:13.904Z,99817.48
2019-06-20T23:28:42.762Z,99821.48
2019-06-20T23:31:12.018Z,99816.73
2019-06-20T23:33:41.063Z,99818.39
2019-06-20T23:36:10.232Z,99816.81
2019-06-20T23:38:39.387Z,99823.97
2019-06-20T23:41:08.677Z,99818.25
2019-06-20T23:43:38.006Z,99829.41
2019-06-20T23:46:06.989Z,99827.53
2019-06-20T23:48:35.889Z,99828.31
2019-06-20T23:51:06.674Z,99834.16
2019-06-20T23:53:35.842Z,99827.77
2019-06-20T23:56:07.923Z,99830.11
2019-06-20T23:58:35.889Z,99830.26
